sensor_id;sensor_type;location;lat;lon;timestamp;P1;durP1;ratioP1;P2;durP2;ratioP2
20431;SDS011;10375;49.136;10.366;2023-02-01T00:00:32;10.03;;;5.50;;
20431;SDS011;10375;49.136;10.366;2023-02-01T00:03:00;7.63;;;5.57;;
20431;SDS011;10375;49.136;10.366;2023-02-01T00:05:27;7.17;;;5.23;;
20431;SDS011;10375;49.136;10.366;2023-02-01T00:07:54;7.30;;;5.30;;
20431;SDS011;10375;49.136;10.366;2023-02-01T00:10:21;8.03;;;5.20;;
20431;SDS011;10375;49.136;10.366;2023-02-01T00:12:49;9.97;;;5.17;;
20431;SDS011;10375;49.136;10.366;2023-02-01T00:15:16;8.07;;;5.00;;
20431;SDS011;10375;49.136;10.366;2023-02-01T00:17:43;6.13;;;4.47;;
20431;SDS011;10375;49.136;10.366;2023-02-01T00:20:11;7.20;;;4.93;;
20431;SDS011;10375;49.136;10.366;2023-02-01T00:22:38;6.90;;;4.90;;
20431;SDS011;10375;49.136;10.366;2023-02-01T00:25:06;6.23;;;5.10;;
20431;SDS011;10375;49.136;10.366;2023-02-01T00:27:33;7.67;;;5.17;;
20431;SDS011;10375;49.136;10.366;2023-02-01T00:30:00;9.23;;;4.00;;
20431;SDS011;10375;49.136;10.366;2023-02-01T00:32:27;6.17;;;4.80;;
20431;SDS011;10375;49.136;10.366;2023-02-01T00:34:54;6.80;;;4.77;;
20431;SDS011;10375;49.136;10.366;2023-02-01T00:37:21;8.00;;;4.60;;
20431;SDS011;10375;49.136;10.366;2023-02-01T00:39:49;6.80;;;4.27;;
20431;SDS011;10375;49.136;10.366;2023-02-01T00:42:16;6.47;;;4.30;;
20431;SDS011;10375;49.136;10.366;2023-02-01T00:44:43;6.43;;;4.40;;
20431;SDS011;10375;49.136;10.366;2023-02-01T00:47:10;6.30;;;4.20;;
20431;SDS011;10375;49.136;10.366;2023-02-01T00:49:37;8.23;;;5.00;;
20431;SDS011;10375;49.136;10.366;2023-02-01T00:52:04;7.40;;;4.67;;
20431;SDS011;10375;49.136;10.366;2023-02-01T00:54:32;4.93;;;4.23;;
20431;SDS011;10375;49.136;10.366;2023-02-01T00:56:59;8.30;;;5.13;;
20431;SDS011;10375;49.136;10.366;2023-02-01T00:59:26;6.87;;;4.83;;
20431;SDS011;10375;49.136;10.366;2023-02-01T01:01:53;6.43;;;3.93;;
20431;SDS011;10375;49.136;10.366;2023-02-01T01:04:20;5.13;;;4.40;;
20431;SDS011;10375;49.136;10.366;2023-02-01T01:06:47;6.20;;;4.70;;
20431;SDS011;10375;49.136;10.366;2023-02-01T01:09:14;5.60;;;4.63;;
20431;SDS011;10375;49.136;10.366;2023-02-01T01:11:41;8.30;;;5.33;;
20431;SDS011;10375;49.136;10.366;2023-02-01T01:14:09;7.83;;;5.20;;
20431;SDS011;10375;49.136;10.366;2023-02-01T01:16:37;7.37;;;4.73;;
20431;SDS011;10375;49.136;10.366;2023-02-01T01:19:04;6.03;;;4.80;;
20431;SDS011;10375;49.136;10.366;2023-02-01T01:21:31;6.30;;;5.00;;
20431;SDS011;10375;49.136;10.366;2023-02-01T01:23:59;6.70;;;4.87;;
20431;SDS011;10375;49.136;10.366;2023-02-01T01:26:27;7.93;;;5.67;;
20431;SDS011;10375;49.136;10.366;2023-02-01T01:28:56;5.00;;;4.33;;
20431;SDS011;10375;49.136;10.366;2023-02-01T01:31:24;6.20;;;5.13;;
20431;SDS011;10375;49.136;10.366;2023-02-01T01:33:52;9.40;;;5.30;;
20431;SDS011;10375;49.136;10.366;2023-02-01T01:36:21;7.83;;;4.80;;
20431;SDS011;10375;49.136;10.366;2023-02-01T01:38:48;7.23;;;5.37;;
20431;SDS011;10375;49.136;10.366;2023-02-01T01:41:19;7.90;;;5.10;;
20431;SDS011;10375;49.136;10.366;2023-02-01T01:43:58;6.23;;;4.87;;
20431;SDS011;10375;49.136;10.366;2023-02-01T01:46:31;6.23;;;5.10;;
20431;SDS011;10375;49.136;10.366;2023-02-01T01:52:04;5.70;;;4.23;;
20431;SDS011;10375;49.136;10.366;2023-02-01T01:54:33;6.37;;;4.83;;
20431;SDS011;10375;49.136;10.366;2023-02-01T01:57:06;8.27;;;5.07;;
20431;SDS011;10375;49.136;10.366;2023-02-01T01:59:41;4.47;;;4.00;;
20431;SDS011;10375;49.136;10.366;2023-02-01T02:02:13;7.83;;;4.10;;
20431;SDS011;10375;49.136;10.366;2023-02-01T02:04:40;6.43;;;4.83;;
20431;SDS011;10375;49.136;10.366;2023-02-01T02:07:08;8.13;;;4.63;;
20431;SDS011;10375;49.136;10.366;2023-02-01T02:09:39;5.67;;;4.57;;
20431;SDS011;10375;49.136;10.366;2023-02-01T02:12:20;7.83;;;4.87;;
20431;SDS011;10375;49.136;10.366;2023-02-01T02:14:46;5.70;;;4.50;;
20431;SDS011;10375;49.136;10.366;2023-02-01T02:17:21;7.90;;;4.73;;
20431;SDS011;10375;49.136;10.366;2023-02-01T02:23:17;5.97;;;4.87;;
20431;SDS011;10375;49.136;10.366;2023-02-01T02:31:18;5.90;;;4.00;;
20431;SDS011;10375;49.136;10.366;2023-02-01T02:36:59;7.10;;;4.27;;
20431;SDS011;10375;49.136;10.366;2023-02-01T02:39:41;4.97;;;4.30;;
20431;SDS011;10375;49.136;10.366;2023-02-01T02:42:41;4.23;;;3.60;;
20431;SDS011;10375;49.136;10.366;2023-02-01T02:48:36;5.80;;;3.93;;
20431;SDS011;10375;49.136;10.366;2023-02-01T02:54:36;4.50;;;4.00;;
20431;SDS011;10375;49.136;10.366;2023-02-01T03:00:36;7.63;;;4.03;;
20431;SDS011;10375;49.136;10.366;2023-02-01T03:03:22;4.03;;;3.63;;
20431;SDS011;10375;49.136;10.366;2023-02-01T03:06:11;7.00;;;4.23;;
20431;SDS011;10375;49.136;10.366;2023-02-01T03:08:42;6.23;;;4.07;;
20431;SDS011;10375;49.136;10.366;2023-02-01T03:11:13;5.03;;;3.87;;
20431;SDS011;10375;49.136;10.366;2023-02-01T03:13:57;5.43;;;4.33;;
20431;SDS011;10375;49.136;10.366;2023-02-01T03:16:30;6.50;;;4.60;;
20431;SDS011;10375;49.136;10.366;2023-02-01T03:19:01;4.80;;;4.03;;
20431;SDS011;10375;49.136;10.366;2023-02-01T03:24:13;4.57;;;3.83;;
20431;SDS011;10375;49.136;10.366;2023-02-01T03:27:13;4.97;;;4.03;;
20431;SDS011;10375;49.136;10.366;2023-02-01T03:32:19;6.17;;;4.07;;
20431;SDS011;10375;49.136;10.366;2023-02-01T03:34:47;6.53;;;4.10;;
20431;SDS011;10375;49.136;10.366;2023-02-01T03:37:17;7.60;;;4.30;;
20431;SDS011;10375;49.136;10.366;2023-02-01T03:42:37;5.63;;;4.30;;
20431;SDS011;10375;49.136;10.366;2023-02-01T03:45:13;6.47;;;4.33;;
20431;SDS011;10375;49.136;10.366;2023-02-01T03:47:53;4.47;;;3.87;;
20431;SDS011;10375;49.136;10.366;2023-02-01T03:50:23;4.43;;;4.03;;
20431;SDS011;10375;49.136;10.366;2023-02-01T03:55:37;5.00;;;3.60;;
20431;SDS011;10375;49.136;10.366;2023-02-01T04:00:34;5.87;;;3.87;;
20431;SDS011;10375;49.136;10.366;2023-02-01T04:03:02;5.63;;;3.73;;
20431;SDS011;10375;49.136;10.366;2023-02-01T04:05:31;5.10;;;4.10;;
20431;SDS011;10375;49.136;10.366;2023-02-01T04:07:58;4.13;;;3.70;;
20431;SDS011;10375;49.136;10.366;2023-02-01T04:10:26;6.03;;;3.87;;
20431;SDS011;10375;49.136;10.366;2023-02-01T04:12:53;16.70;;;10.33;;
20431;SDS011;10375;49.136;10.366;2023-02-01T04:15:20;4.80;;;4.30;;
20431;SDS011;10375;49.136;10.366;2023-02-01T04:17:47;5.83;;;3.80;;
20431;SDS011;10375;49.136;10.366;2023-02-01T04:20:15;4.60;;;4.10;;
20431;SDS011;10375;49.136;10.366;2023-02-01T04:22:42;5.00;;;3.53;;
20431;SDS011;10375;49.136;10.366;2023-02-01T04:25:10;4.43;;;3.53;;
20431;SDS011;10375;49.136;10.366;2023-02-01T04:27:37;9.20;;;3.57;;
20431;SDS011;10375;49.136;10.366;2023-02-01T04:30:05;5.77;;;4.23;;
20431;SDS011;10375;49.136;10.366;2023-02-01T04:32:36;6.07;;;3.47;;
20431;SDS011;10375;49.136;10.366;2023-02-01T04:35:04;4.90;;;3.37;;
20431;SDS011;10375;49.136;10.366;2023-02-01T04:37:31;4.13;;;3.73;;
20431;SDS011;10375;49.136;10.366;2023-02-01T04:39:58;3.90;;;3.50;;
20431;SDS011;10375;49.136;10.366;2023-02-01T04:42:25;4.00;;;3.50;;
20431;SDS011;10375;49.136;10.366;2023-02-01T04:44:53;4.87;;;3.70;;
20431;SDS011;10375;49.136;10.366;2023-02-01T04:47:20;5.70;;;3.40;;
20431;SDS011;10375;49.136;10.366;2023-02-01T04:49:47;4.17;;;3.53;;
20431;SDS011;10375;49.136;10.366;2023-02-01T04:52:14;4.33;;;3.43;;
20431;SDS011;10375;49.136;10.366;2023-02-01T04:54:41;6.03;;;3.40;;
20431;SDS011;10375;49.136;10.366;2023-02-01T04:57:08;5.07;;;3.20;;
20431;SDS011;10375;49.136;10.366;2023-02-01T04:59:35;4.47;;;3.43;;
20431;SDS011;10375;49.136;10.366;2023-02-01T05:02:03;3.77;;;3.37;;
20431;SDS011;10375;49.136;10.366;2023-02-01T05:04:29;4.50;;;2.97;;
20431;SDS011;10375;49.136;10.366;2023-02-01T05:06:56;3.47;;;3.17;;
20431;SDS011;10375;49.136;10.366;2023-02-01T05:09:24;4.27;;;3.20;;
20431;SDS011;10375;49.136;10.366;2023-02-01T05:11:50;4.47;;;4.07;;
20431;SDS011;10375;49.136;10.366;2023-02-01T05:15:00;4.27;;;3.87;;
20431;SDS011;10375;49.136;10.366;2023-02-01T05:17:28;4.33;;;3.40;;
20431;SDS011;10375;49.136;10.366;2023-02-01T05:19:54;4.37;;;3.07;;
20431;SDS011;10375;49.136;10.366;2023-02-01T05:22:21;4.53;;;3.50;;
20431;SDS011;10375;49.136;10.366;2023-02-01T05:24:49;4.83;;;3.90;;
20431;SDS011;10375;49.136;10.366;2023-02-01T05:27:15;3.47;;;3.17;;
20431;SDS011;10375;49.136;10.366;2023-02-01T05:29:42;5.37;;;3.60;;
20431;SDS011;10375;49.136;10.366;2023-02-01T05:32:09;3.87;;;3.30;;
20431;SDS011;10375;49.136;10.366;2023-02-01T05:34:47;6.23;;;4.20;;
20431;SDS011;10375;49.136;10.366;2023-02-01T05:37:15;5.13;;;3.83;;
20431;SDS011;10375;49.136;10.366;2023-02-01T05:39:42;5.80;;;3.47;;
20431;SDS011;10375;49.136;10.366;2023-02-01T05:42:09;5.00;;;3.90;;
20431;SDS011;10375;49.136;10.366;2023-02-01T05:44:36;4.00;;;3.60;;
20431;SDS011;10375;49.136;10.366;2023-02-01T05:47:03;6.33;;;3.80;;
20431;SDS011;10375;49.136;10.366;2023-02-01T05:49:31;4.37;;;3.93;;
20431;SDS011;10375;49.136;10.366;2023-02-01T05:51:58;8.10;;;3.50;;
20431;SDS011;10375;49.136;10.366;2023-02-01T05:54:26;5.17;;;3.70;;
20431;SDS011;10375;49.136;10.366;2023-02-01T05:56:53;5.60;;;3.93;;
20431;SDS011;10375;49.136;10.366;2023-02-01T05:59:20;6.00;;;3.73;;
20431;SDS011;10375;49.136;10.366;2023-02-01T06:01:47;6.33;;;4.03;;
20431;SDS011;10375;49.136;10.366;2023-02-01T06:04:14;6.27;;;4.03;;
20431;SDS011;10375;49.136;10.366;2023-02-01T06:06:41;4.10;;;3.40;;
20431;SDS011;10375;49.136;10.366;2023-02-01T06:09:09;4.40;;;3.80;;
20431;SDS011;10375;49.136;10.366;2023-02-01T06:11:36;3.60;;;3.27;;
20431;SDS011;10375;49.136;10.366;2023-02-01T06:14:03;5.33;;;4.03;;
20431;SDS011;10375;49.136;10.366;2023-02-01T06:16:30;8.40;;;3.70;;
20431;SDS011;10375;49.136;10.366;2023-02-01T06:18:57;6.43;;;4.17;;
20431;SDS011;10375;49.136;10.366;2023-02-01T06:21:24;4.23;;;3.83;;
20431;SDS011;10375;49.136;10.366;2023-02-01T06:23:52;3.97;;;3.57;;
20431;SDS011;10375;49.136;10.366;2023-02-01T06:26:20;4.97;;;3.60;;
20431;SDS011;10375;49.136;10.366;2023-02-01T06:28:47;6.13;;;3.90;;
20431;SDS011;10375;49.136;10.366;2023-02-01T06:31:15;4.53;;;3.90;;
20431;SDS011;10375;49.136;10.366;2023-02-01T06:33:42;5.00;;;3.70;;
20431;SDS011;10375;49.136;10.366;2023-02-01T06:36:10;5.93;;;3.23;;
20431;SDS011;10375;49.136;10.366;2023-02-01T06:38:42;8.63;;;4.07;;
20431;SDS011;10375;49.136;10.366;2023-02-01T06:41:09;8.90;;;3.70;;
20431;SDS011;10375;49.136;10.366;2023-02-01T06:43:37;7.30;;;3.90;;
20431;SDS011;10375;49.136;10.366;2023-02-01T06:46:06;7.95;;;4.78;;
20431;SDS011;10375;49.136;10.366;2023-02-01T06:48:34;17.30;;;4.10;;
20431;SDS011;10375;49.136;10.366;2023-02-01T06:51:01;4.40;;;3.33;;
20431;SDS011;10375;49.136;10.366;2023-02-01T06:53:28;5.00;;;3.50;;
20431;SDS011;10375;49.136;10.366;2023-02-01T06:55:56;6.80;;;3.40;;
20431;SDS011;10375;49.136;10.366;2023-02-01T06:58:29;8.63;;;3.67;;
20431;SDS011;10375;49.136;10.366;2023-02-01T07:00:57;4.57;;;3.20;;
20431;SDS011;10375;49.136;10.366;2023-02-01T07:03:25;4.10;;;3.20;;
20431;SDS011;10375;49.136;10.366;2023-02-01T07:05:56;6.57;;;3.47;;
20431;SDS011;10375;49.136;10.366;2023-02-01T07:08:27;4.43;;;3.60;;
20431;SDS011;10375;49.136;10.366;2023-02-01T07:10:54;8.80;;;3.70;;
20431;SDS011;10375;49.136;10.366;2023-02-01T07:13:21;4.37;;;3.47;;
20431;SDS011;10375;49.136;10.366;2023-02-01T07:15:48;5.30;;;3.77;;
20431;SDS011;10375;49.136;10.366;2023-02-01T07:18:15;5.03;;;3.47;;
20431;SDS011;10375;49.136;10.366;2023-02-01T07:20:42;6.40;;;4.50;;
20431;SDS011;10375;49.136;10.366;2023-02-01T07:23:09;13.40;;;4.53;;
20431;SDS011;10375;49.136;10.366;2023-02-01T07:25:37;5.90;;;3.87;;
20431;SDS011;10375;49.136;10.366;2023-02-01T07:28:04;6.40;;;3.93;;
20431;SDS011;10375;49.136;10.366;2023-02-01T07:30:31;9.33;;;3.80;;
20431;SDS011;10375;49.136;10.366;2023-02-01T07:32:58;7.70;;;4.17;;
20431;SDS011;10375;49.136;10.366;2023-02-01T07:35:27;6.43;;;4.10;;
20431;SDS011;10375;49.136;10.366;2023-02-01T07:37:56;4.97;;;3.93;;
20431;SDS011;10375;49.136;10.366;2023-02-01T07:40:24;7.57;;;3.80;;
20431;SDS011;10375;49.136;10.366;2023-02-01T07:42:55;4.57;;;3.50;;
20431;SDS011;10375;49.136;10.366;2023-02-01T07:45:22;8.93;;;4.20;;
20431;SDS011;10375;49.136;10.366;2023-02-01T07:47:51;4.17;;;3.27;;
20431;SDS011;10375;49.136;10.366;2023-02-01T07:50:19;5.57;;;3.43;;
20431;SDS011;10375;49.136;10.366;2023-02-01T07:52:47;4.47;;;3.50;;
20431;SDS011;10375;49.136;10.366;2023-02-01T07:55:14;4.50;;;3.10;;
20431;SDS011;10375;49.136;10.366;2023-02-01T07:57:41;6.87;;;4.73;;
20431;SDS011;10375;49.136;10.366;2023-02-01T08:00:08;5.33;;;4.00;;
20431;SDS011;10375;49.136;10.366;2023-02-01T08:02:57;6.63;;;4.00;;
20431;SDS011;10375;49.136;10.366;2023-02-01T08:05:25;5.03;;;3.87;;
20431;SDS011;10375;49.136;10.366;2023-02-01T08:07:52;6.53;;;5.13;;
20431;SDS011;10375;49.136;10.366;2023-02-01T08:10:19;12.37;;;4.17;;
20431;SDS011;10375;49.136;10.366;2023-02-01T08:12:46;7.70;;;4.93;;
20431;SDS011;10375;49.136;10.366;2023-02-01T08:15:15;9.27;;;4.93;;
20431;SDS011;10375;49.136;10.366;2023-02-01T08:17:46;9.17;;;5.10;;
20431;SDS011;10375;49.136;10.366;2023-02-01T08:20:14;9.17;;;4.83;;
20431;SDS011;10375;49.136;10.366;2023-02-01T08:22:42;5.03;;;4.53;;
20431;SDS011;10375;49.136;10.366;2023-02-01T08:25:09;8.77;;;5.30;;
20431;SDS011;10375;49.136;10.366;2023-02-01T08:27:37;11.23;;;5.10;;
20431;SDS011;10375;49.136;10.366;2023-02-01T08:30:04;8.27;;;4.50;;
20431;SDS011;10375;49.136;10.366;2023-02-01T08:32:33;6.90;;;4.50;;
20431;SDS011;10375;49.136;10.366;2023-02-01T08:35:02;12.57;;;5.10;;
20431;SDS011;10375;49.136;10.366;2023-02-01T08:37:29;9.27;;;4.00;;
20431;SDS011;10375;49.136;10.366;2023-02-01T08:39:58;10.63;;;5.37;;
20431;SDS011;10375;49.136;10.366;2023-02-01T08:42:25;8.07;;;4.57;;
20431;SDS011;10375;49.136;10.366;2023-02-01T08:45:11;8.83;;;4.73;;
20431;SDS011;10375;49.136;10.366;2023-02-01T08:47:38;7.13;;;4.53;;
20431;SDS011;10375;49.136;10.366;2023-02-01T08:50:05;11.40;;;4.77;;
20431;SDS011;10375;49.136;10.366;2023-02-01T08:52:33;6.67;;;4.00;;
20431;SDS011;10375;49.136;10.366;2023-02-01T08:55:02;10.17;;;4.73;;
20431;SDS011;10375;49.136;10.366;2023-02-01T08:57:30;8.27;;;3.90;;
20431;SDS011;10375;49.136;10.366;2023-02-01T08:59:57;8.87;;;4.70;;
20431;SDS011;10375;49.136;10.366;2023-02-01T09:02:24;9.17;;;4.07;;
20431;SDS011;10375;49.136;10.366;2023-02-01T09:04:51;8.00;;;3.80;;
20431;SDS011;10375;49.136;10.366;2023-02-01T09:07:18;12.93;;;3.93;;
20431;SDS011;10375;49.136;10.366;2023-02-01T09:09:45;9.90;;;4.23;;
20431;SDS011;10375;49.136;10.366;2023-02-01T09:12:12;8.03;;;4.03;;
20431;SDS011;10375;49.136;10.366;2023-02-01T09:14:39;8.10;;;3.73;;
20431;SDS011;10375;49.136;10.366;2023-02-01T09:17:08;8.87;;;3.60;;
20431;SDS011;10375;49.136;10.366;2023-02-01T09:19:35;5.97;;;2.90;;
20431;SDS011;10375;49.136;10.366;2023-02-01T09:22:02;9.10;;;3.17;;
20431;SDS011;10375;49.136;10.366;2023-02-01T09:24:29;10.67;;;3.60;;
20431;SDS011;10375;49.136;10.366;2023-02-01T09:26:56;8.23;;;3.70;;
20431;SDS011;10375;49.136;10.366;2023-02-01T09:29:23;7.10;;;3.43;;
20431;SDS011;10375;49.136;10.366;2023-02-01T09:31:50;8.73;;;3.20;;
20431;SDS011;10375;49.136;10.366;2023-02-01T09:34:29;11.13;;;3.63;;
20431;SDS011;10375;49.136;10.366;2023-02-01T09:36:56;6.03;;;3.70;;
20431;SDS011;10375;49.136;10.366;2023-02-01T09:39:23;11.33;;;4.43;;
20431;SDS011;10375;49.136;10.366;2023-02-01T09:41:53;7.43;;;2.97;;
20431;SDS011;10375;49.136;10.366;2023-02-01T09:47:25;10.83;;;3.87;;
20431;SDS011;10375;49.136;10.366;2023-02-01T09:50:10;9.40;;;3.83;;
20431;SDS011;10375;49.136;10.366;2023-02-01T09:52:44;8.27;;;3.10;;
20431;SDS011;10375;49.136;10.366;2023-02-01T09:55:44;6.63;;;3.10;;
20431;SDS011;10375;49.136;10.366;2023-02-01T10:00:55;11.63;;;3.17;;
20431;SDS011;10375;49.136;10.366;2023-02-01T10:03:27;7.67;;;3.23;;
20431;SDS011;10375;49.136;10.366;2023-02-01T10:12:29;7.73;;;3.40;;
20431;SDS011;10375;49.136;10.366;2023-02-01T10:15:02;11.00;;;3.50;;
20431;SDS011;10375;49.136;10.366;2023-02-01T10:23:06;5.90;;;3.20;;
20431;SDS011;10375;49.136;10.366;2023-02-01T10:28:50;9.13;;;3.50;;
20431;SDS011;10375;49.136;10.366;2023-02-01T10:31:34;12.67;;;3.80;;
20431;SDS011;10375;49.136;10.366;2023-02-01T10:34:14;9.90;;;3.20;;
20431;SDS011;10375;49.136;10.366;2023-02-01T10:36:52;7.27;;;3.63;;
20431;SDS011;10375;49.136;10.366;2023-02-01T10:39:27;9.20;;;3.73;;
20431;SDS011;10375;49.136;10.366;2023-02-01T10:41:55;11.43;;;3.97;;
20431;SDS011;10375;49.136;10.366;2023-02-01T10:46:57;8.87;;;3.60;;
20431;SDS011;10375;49.136;10.366;2023-02-01T10:49:26;15.27;;;3.73;;
20431;SDS011;10375;49.136;10.366;2023-02-01T10:55:47;15.80;;;3.90;;
20431;SDS011;10375;49.136;10.366;2023-02-01T10:57:58;14.13;;;3.77;;
20431;SDS011;10375;49.136;10.366;2023-02-01T11:01:31;13.40;;;3.17;;
20431;SDS011;10375;49.136;10.366;2023-02-01T11:03:33;10.17;;;3.77;;
20431;SDS011;10375;49.136;10.366;2023-02-01T11:08:54;11.90;;;3.10;;
20431;SDS011;10375;49.136;10.366;2023-02-01T11:11:24;11.30;;;3.40;;
20431;SDS011;10375;49.136;10.366;2023-02-01T11:13:52;9.90;;;3.77;;
20431;SDS011;10375;49.136;10.366;2023-02-01T11:16:30;21.13;;;4.03;;
20431;SDS011;10375;49.136;10.366;2023-02-01T11:19:06;8.23;;;3.13;;
20431;SDS011;10375;49.136;10.366;2023-02-01T11:21:33;11.13;;;3.60;;
20431;SDS011;10375;49.136;10.366;2023-02-01T11:24:02;11.67;;;3.60;;
20431;SDS011;10375;49.136;10.366;2023-02-01T11:26:30;11.60;;;3.37;;
20431;SDS011;10375;49.136;10.366;2023-02-01T11:29:01;8.67;;;3.33;;
20431;SDS011;10375;49.136;10.366;2023-02-01T11:31:32;10.40;;;2.57;;
20431;SDS011;10375;49.136;10.366;2023-02-01T11:34:04;10.37;;;3.00;;
20431;SDS011;10375;49.136;10.366;2023-02-01T11:36:40;6.03;;;2.93;;
20431;SDS011;10375;49.136;10.366;2023-02-01T11:42:24;10.00;;;2.50;;
20431;SDS011;10375;49.136;10.366;2023-02-01T11:44:39;5.90;;;2.37;;
20431;SDS011;10375;49.136;10.366;2023-02-01T11:49:53;12.20;;;2.67;;
20431;SDS011;10375;49.136;10.366;2023-02-01T11:55:23;8.03;;;3.00;;
20431;SDS011;10375;49.136;10.366;2023-02-01T11:57:57;13.63;;;2.97;;
20431;SDS011;10375;49.136;10.366;2023-02-01T12:33:58;10.80;;;2.37;;
20431;SDS011;10375;49.136;10.366;2023-02-01T12:36:53;8.63;;;2.50;;
20431;SDS011;10375;49.136;10.366;2023-02-01T12:39:39;6.43;;;2.20;;
20431;SDS011;10375;49.136;10.366;2023-02-01T12:44:56;11.67;;;2.77;;
20431;SDS011;10375;49.136;10.366;2023-02-01T12:47:52;9.80;;;2.57;;
20431;SDS011;10375;49.136;10.366;2023-02-01T12:50:39;11.93;;;3.20;;
20431;SDS011;10375;49.136;10.366;2023-02-01T12:53:23;13.20;;;2.87;;
20431;SDS011;10375;49.136;10.366;2023-02-01T12:55:58;13.47;;;3.57;;
20431;SDS011;10375;49.136;10.366;2023-02-01T12:58:32;4.77;;;2.23;;
20431;SDS011;10375;49.136;10.366;2023-02-01T13:01:02;13.33;;;3.23;;
20431;SDS011;10375;49.136;10.366;2023-02-01T13:03:37;9.23;;;3.67;;
20431;SDS011;10375;49.136;10.366;2023-02-01T13:09:15;14.20;;;2.93;;
20431;SDS011;10375;49.136;10.366;2023-02-01T13:11:54;11.87;;;3.30;;
20431;SDS011;10375;49.136;10.366;2023-02-01T13:17:02;11.57;;;3.40;;
20431;SDS011;10375;49.136;10.366;2023-02-01T13:19:53;11.47;;;2.27;;
20431;SDS011;10375;49.136;10.366;2023-02-01T13:27:39;9.93;;;3.30;;
20431;SDS011;10375;49.136;10.366;2023-02-01T13:30:17;15.23;;;3.63;;
20431;SDS011;10375;49.136;10.366;2023-02-01T13:36:20;8.03;;;3.27;;
20431;SDS011;10375;49.136;10.366;2023-02-01T13:39:23;12.27;;;2.80;;
20431;SDS011;10375;49.136;10.366;2023-02-01T13:44:30;10.13;;;3.27;;
20431;SDS011;10375;49.136;10.366;2023-02-01T13:47:11;12.77;;;3.43;;
20431;SDS011;10375;49.136;10.366;2023-02-01T13:49:51;17.70;;;3.33;;
20431;SDS011;10375;49.136;10.366;2023-02-01T13:52:27;11.43;;;3.47;;
20431;SDS011;10375;49.136;10.366;2023-02-01T13:57:49;16.20;;;3.30;;
20431;SDS011;10375;49.136;10.366;2023-02-01T14:26:24;18.83;;;3.20;;
20431;SDS011;10375;49.136;10.366;2023-02-01T14:31:53;9.33;;;3.17;;
20431;SDS011;10375;49.136;10.366;2023-02-01T14:50:45;19.50;;;4.03;;
20431;SDS011;10375;49.136;10.366;2023-02-01T14:53:19;7.57;;;2.63;;
20431;SDS011;10375;49.136;10.366;2023-02-01T15:01:31;12.53;;;3.30;;
20431;SDS011;10375;49.136;10.366;2023-02-01T15:04:11;11.87;;;3.23;;
20431;SDS011;10375;49.136;10.366;2023-02-01T15:06:52;16.53;;;3.53;;
20431;SDS011;10375;49.136;10.366;2023-02-01T15:09:28;9.27;;;4.37;;
20431;SDS011;10375;49.136;10.366;2023-02-01T15:12:03;13.07;;;2.87;;
20431;SDS011;10375;49.136;10.366;2023-02-01T15:14:44;15.40;;;3.93;;
20431;SDS011;10375;49.136;10.366;2023-02-01T15:17:30;10.67;;;3.00;;
20431;SDS011;10375;49.136;10.366;2023-02-01T15:20:05;19.53;;;4.03;;
20431;SDS011;10375;49.136;10.366;2023-02-01T15:22:57;17.97;;;2.87;;
20431;SDS011;10375;49.136;10.366;2023-02-01T15:25:27;13.30;;;2.77;;
20431;SDS011;10375;49.136;10.366;2023-02-01T15:27:56;13.67;;;3.20;;
20431;SDS011;10375;49.136;10.366;2023-02-01T15:30:26;9.03;;;2.77;;
20431;SDS011;10375;49.136;10.366;2023-02-01T15:36:06;8.33;;;2.70;;
20431;SDS011;10375;49.136;10.366;2023-02-01T15:38:39;9.27;;;2.53;;
20431;SDS011;10375;49.136;10.366;2023-02-01T15:41:18;20.27;;;3.83;;
20431;SDS011;10375;49.136;10.366;2023-02-01T15:46:22;16.40;;;3.67;;
20431;SDS011;10375;49.136;10.366;2023-02-01T15:48:57;13.13;;;2.70;;
20431;SDS011;10375;49.136;10.366;2023-02-01T15:51:26;17.80;;;3.27;;
20431;SDS011;10375;49.136;10.366;2023-02-01T15:53:57;8.40;;;3.13;;
20431;SDS011;10375;49.136;10.366;2023-02-01T15:56:29;10.23;;;2.80;;
20431;SDS011;10375;49.136;10.366;2023-02-01T15:59:02;7.63;;;3.10;;
20431;SDS011;10375;49.136;10.366;2023-02-01T16:01:36;7.63;;;2.83;;
20431;SDS011;10375;49.136;10.366;2023-02-01T16:06:46;10.07;;;2.73;;
20431;SDS011;10375;49.136;10.366;2023-02-01T16:09:17;10.80;;;3.27;;
20431;SDS011;10375;49.136;10.366;2023-02-01T16:11:48;13.47;;;3.40;;
20431;SDS011;10375;49.136;10.366;2023-02-01T16:14:15;14.23;;;3.50;;
20431;SDS011;10375;49.136;10.366;2023-02-01T16:16:42;8.83;;;3.00;;
20431;SDS011;10375;49.136;10.366;2023-02-01T16:19:09;6.20;;;2.90;;
20431;SDS011;10375;49.136;10.366;2023-02-01T16:21:36;21.83;;;3.43;;
20431;SDS011;10375;49.136;10.366;2023-02-01T16:24:04;7.00;;;3.23;;
20431;SDS011;10375;49.136;10.366;2023-02-01T16:26:33;8.87;;;3.23;;
20431;SDS011;10375;49.136;10.366;2023-02-01T16:29:02;7.93;;;2.67;;
20431;SDS011;10375;49.136;10.366;2023-02-01T16:31:34;16.37;;;2.80;;
20431;SDS011;10375;49.136;10.366;2023-02-01T16:34:03;8.90;;;3.30;;
20431;SDS011;10375;49.136;10.366;2023-02-01T16:36:33;12.33;;;3.00;;
20431;SDS011;10375;49.136;10.366;2023-02-01T16:39:00;9.03;;;3.17;;
20431;SDS011;10375;49.136;10.366;2023-02-01T16:41:29;16.80;;;3.13;;
20431;SDS011;10375;49.136;10.366;2023-02-01T16:43:56;10.60;;;2.40;;
20431;SDS011;10375;49.136;10.366;2023-02-01T16:46:25;10.80;;;2.97;;
20431;SDS011;10375;49.136;10.366;2023-02-01T16:48:56;11.23;;;2.77;;
20431;SDS011;10375;49.136;10.366;2023-02-01T16:51:25;11.50;;;3.08;;
20431;SDS011;10375;49.136;10.366;2023-02-01T16:53:59;12.40;;;2.73;;
20431;SDS011;10375;49.136;10.366;2023-02-01T16:56:31;10.47;;;4.37;;
20431;SDS011;10375;49.136;10.366;2023-02-01T16:59:00;7.40;;;2.70;;
20431;SDS011;10375;49.136;10.366;2023-02-01T17:01:27;5.47;;;2.80;;
20431;SDS011;10375;49.136;10.366;2023-02-01T17:03:55;11.10;;;3.27;;
20431;SDS011;10375;49.136;10.366;2023-02-01T17:06:24;11.20;;;2.33;;
20431;SDS011;10375;49.136;10.366;2023-02-01T17:08:54;13.63;;;3.07;;
20431;SDS011;10375;49.136;10.366;2023-02-01T17:11:24;12.00;;;2.63;;
20431;SDS011;10375;49.136;10.366;2023-02-01T17:13:54;13.43;;;3.37;;
20431;SDS011;10375;49.136;10.366;2023-02-01T17:16:33;10.57;;;2.80;;
20431;SDS011;10375;49.136;10.366;2023-02-01T17:19:05;13.03;;;3.57;;
20431;SDS011;10375;49.136;10.366;2023-02-01T17:21:41;12.30;;;3.33;;
20431;SDS011;10375;49.136;10.366;2023-02-01T17:24:14;12.23;;;3.30;;
20431;SDS011;10375;49.136;10.366;2023-02-01T17:27:01;15.57;;;3.67;;
20431;SDS011;10375;49.136;10.366;2023-02-01T17:29:35;10.37;;;2.90;;
20431;SDS011;10375;49.136;10.366;2023-02-01T17:32:02;9.00;;;2.80;;
20431;SDS011;10375;49.136;10.366;2023-02-01T17:34:31;10.70;;;2.87;;
20431;SDS011;10375;49.136;10.366;2023-02-01T17:36:59;16.43;;;3.20;;
20431;SDS011;10375;49.136;10.366;2023-02-01T17:39:26;11.63;;;2.77;;
20431;SDS011;10375;49.136;10.366;2023-02-01T17:42:11;12.90;;;2.63;;
20431;SDS011;10375;49.136;10.366;2023-02-01T17:44:39;21.37;;;4.73;;
20431;SDS011;10375;49.136;10.366;2023-02-01T17:47:09;15.83;;;3.70;;
20431;SDS011;10375;49.136;10.366;2023-02-01T17:49:36;13.83;;;2.80;;
20431;SDS011;10375;49.136;10.366;2023-02-01T17:52:09;8.27;;;3.07;;
20431;SDS011;10375;49.136;10.366;2023-02-01T17:54:47;11.57;;;3.70;;
20431;SDS011;10375;49.136;10.366;2023-02-01T17:57:15;12.20;;;3.27;;
20431;SDS011;10375;49.136;10.366;2023-02-01T17:59:43;11.73;;;3.10;;
20431;SDS011;10375;49.136;10.366;2023-02-01T18:02:20;9.70;;;3.00;;
20431;SDS011;10375;49.136;10.366;2023-02-01T18:04:50;17.47;;;3.27;;